Time;durP1;ratioP1;P1;durP2;ratioP2;P2;SDS_P1;SDS_P2;PMS_P1;PMS_P2;Temp;Humidity;BMP_temperature;BMP_pressure;BME280_temperature;BME280_humidity;BME280_pressure;Samples;Min_cycle;Max_cycle;Signal;HPM_P1;HPM_P2
2023/10/22 00:02:25;;;;;;;3.60;1.17;;;18.60;99.90;;;;;;4877681;29;20057;-75
2023/10/22 00:04:51;;;;;;;7.15;1.40;;;18.60;99.90;;;;;;4878068;29;20112;-75
2023/10/22 00:07:18;;;;;;;4.80;1.50;;;18.60;99.90;;;;;;4878308;29;20428;-75
2023/10/22 00:09:44;;;;;;;5.45;1.75;;;18.60;99.90;;;;;;4880268;29;20033;-73
2023/10/22 00:12:11;;;;;;;5.80;1.55;;;18.60;99.90;;;;;;4885076;29;20037;-73
2023/10/22 00:14:37;;;;;;;4.95;1.42;;;18.60;99.90;;;;;;4877932;29;20092;-77
2023/10/22 00:17:03;;;;;;;5.75;1.27;;;18.60;99.90;;;;;;4877967;29;20037;-77
2023/10/22 00:19:45;;;;;;;2.95;0.88;;;18.70;99.90;;;;;;4877828;29;20104;-76
2023/10/22 00:22:12;;;;;;;7.68;1.80;;;18.70;99.90;;;;;;4877438;29;20033;-72
2023/10/22 00:24:38;;;;;;;8.50;1.67;;;18.70;99.90;;;;;;4877706;29;20021;-77
2023/10/22 00:27:04;;;;;;;6.40;1.83;;;18.70;99.90;;;;;;4877810;29;20028;-76
2023/10/22 00:29:30;;;;;;;7.90;1.77;;;18.70;99.90;;;;;;4877654;29;20033;-78
2023/10/22 00:31:56;;;;;;;6.45;1.63;;;18.70;99.90;;;;;;4877444;29;20036;-73
2023/10/22 00:34:22;;;;;;;7.18;1.80;;;18.70;99.90;;;;;;4877548;29;20473;-74
2023/10/22 00:36:48;;;;;;;7.20;1.55;;;18.70;99.90;;;;;;4877691;29;20033;-74
2023/10/22 00:39:14;;;;;;;8.25;1.35;;;18.70;99.90;;;;;;4877564;29;20145;-73
2023/10/22 00:41:39;;;;;;;5.28;1.80;;;18.70;99.90;;;;;;4877596;29;20037;-75
2023/10/22 00:44:06;;;;;;;5.43;1.38;;;18.60;99.90;;;;;;4877476;29;20029;-77
2023/10/22 00:46:32;;;;;;;5.43;1.60;;;18.60;99.90;;;;;;4844786;29;20072;-74
2023/10/22 00:48:58;;;;;;;3.55;1.27;;;18.60;99.90;;;;;;4881043;29;20120;-74
2023/10/22 00:51:24;;;;;;;5.55;1.95;;;18.60;99.90;;;;;;4864153;29;20044;-74
2023/10/22 00:53:51;;;;;;;4.40;1.20;;;18.60;99.90;;;;;;4863378;29;20037;-75
2023/10/22 00:56:20;;;;;;;7.30;1.30;;;18.60;99.90;;;;;;4864310;29;20397;-74
2023/10/22 00:58:47;;;;;;;7.93;1.73;;;18.60;99.90;;;;;;4880724;29;20029;-74
2023/10/22 01:01:13;;;;;;;4.22;1.58;;;18.60;99.90;;;;;;4880241;29;20033;-74
2023/10/22 01:03:39;;;;;;;6.60;1.30;;;18.60;99.90;;;;;;4880638;29;20045;-74
2023/10/22 01:06:06;;;;;;;2.72;1.20;;;18.60;99.90;;;;;;4880749;29;20032;-73
2023/10/22 01:08:36;;;;;;;3.85;1.75;;;18.60;99.90;;;;;;4863407;29;20409;-76
2023/10/22 01:11:05;;;;;;;6.30;1.50;;;18.60;99.90;;;;;;4863895;29;20472;-74
2023/10/22 01:13:31;;;;;;;5.15;1.00;;;18.60;99.90;;;;;;4880365;29;20054;-76
2023/10/22 01:15:57;;;;;;;5.45;1.90;;;18.60;99.90;;;;;;4863917;29;20499;-74
2023/10/22 01:18:24;;;;;;;3.58;1.30;;;18.60;99.90;;;;;;4880050;29;20045;-74
2023/10/22 01:20:50;;;;;;;5.28;1.33;;;18.60;99.90;;;;;;4863766;29;20124;-75
2023/10/22 01:23:16;;;;;;;5.97;1.70;;;18.60;99.90;;;;;;4863188;29;20033;-76
2023/10/22 01:25:42;;;;;;;2.22;1.13;;;18.60;99.90;;;;;;4880314;29;20052;-75
2023/10/22 01:28:08;;;;;;;7.47;1.90;;;18.70;99.90;;;;;;4880232;29;20100;-76
2023/10/22 01:30:34;;;;;;;11.23;2.05;;;18.60;99.60;;;;;;4863355;29;20136;-74
2023/10/22 01:33:01;;;;;;;8.05;1.77;;;18.70;99.60;;;;;;4880006;29;20112;-73
2023/10/22 01:35:27;;;;;;;4.20;1.75;;;18.70;99.40;;;;;;4880088;29;20548;-75
2023/10/22 01:37:53;;;;;;;5.30;1.35;;;18.60;99.40;;;;;;4863474;29;20033;-74
2023/10/22 01:40:19;;;;;;;6.68;1.98;;;18.60;99.40;;;;;;4880155;29;20037;-74
2023/10/22 01:42:45;;;;;;;6.10;1.70;;;18.60;99.10;;;;;;4880131;29;20104;-75
2023/10/22 01:45:12;;;;;;;5.43;1.02;;;18.60;99.00;;;;;;4863023;29;20101;-74
2023/10/22 01:47:38;;;;;;;3.25;1.08;;;18.60;99.20;;;;;;4880028;29;20073;-74
2023/10/22 01:50:05;;;;;;;4.70;1.30;;;18.60;98.90;;;;;;4879531;29;20462;-73
2023/10/22 01:52:34;;;;;;;6.32;1.15;;;18.60;98.60;;;;;;4862561;29;20044;-74
2023/10/22 01:55:00;;;;;;;3.30;1.30;;;18.60;98.50;;;;;;4880061;29;20041;-74
2023/10/22 01:57:26;;;;;;;17.33;8.63;;;18.50;98.60;;;;;;4862136;29;20033;-74
2023/10/22 01:59:51;;;;;;;11.07;4.00;;;18.50;98.90;;;;;;4862316;29;20037;-74
2023/10/22 02:02:17;;;;;;;11.73;2.92;;;18.40;99.50;;;;;;4862551;29;20560;-73
2023/10/22 02:04:46;;;;;;;9.32;2.53;;;18.20;99.90;;;;;;4879636;29;20550;-73
2023/10/22 02:07:12;;;;;;;15.05;2.80;;;18.20;99.90;;;;;;4862575;29;20033;-74
2023/10/22 02:09:38;;;;;;;10.57;1.80;;;18.00;99.90;;;;;;4862699;29;20128;-73
2023/10/22 02:12:05;;;;;;;6.93;2.28;;;18.00;99.90;;;;;;4879034;29;20029;-73
2023/10/22 02:14:31;;;;;;;44.33;25.95;;;17.90;99.90;;;;;;4879301;29;20056;-73
2023/10/22 02:16:56;;;;;;;15.85;6.93;;;17.80;99.90;;;;;;4862564;29;20075;-73
2023/10/22 02:19:22;;;;;;;42.00;20.85;;;17.70;99.90;;;;;;4878922;29;20381;-75
2023/10/22 02:21:48;;;;;;;36.55;19.55;;;17.70;99.90;;;;;;4862291;29;20039;-74
2023/10/22 02:24:14;;;;;;;16.85;3.85;;;17.70;99.90;;;;;;4877740;29;20031;-74
2023/10/22 02:26:40;;;;;;;16.65;4.72;;;17.60;99.90;;;;;;4869644;29;20457;-75
2023/10/22 02:29:08;;;;;;;8.90;1.48;;;17.60;99.90;;;;;;4878844;29;20068;-73
2023/10/22 02:31:34;;;;;;;5.30;2.20;;;17.60;99.90;;;;;;4878715;29;20033;-73
2023/10/22 02:34:08;;;;;;;6.82;1.65;;;17.60;99.90;;;;;;4879168;29;20029;-73
2023/10/22 02:36:34;;;;;;;10.38;1.92;;;17.70;99.90;;;;;;4866939;29;20063;-73
2023/10/22 02:39:01;;;;;;;7.72;1.65;;;17.60;99.90;;;;;;4879184;29;20351;-77
2023/10/22 02:41:28;;;;;;;4.88;2.00;;;17.50;99.90;;;;;;4862021;29;20033;-73
2023/10/22 02:43:55;;;;;;;10.70;1.90;;;17.70;99.90;;;;;;4861982;29;20047;-75
2023/10/22 02:46:21;;;;;;;6.88;1.83;;;17.70;99.90;;;;;;4877152;29;20025;-75
2023/10/22 02:48:47;;;;;;;5.13;1.70;;;17.70;99.90;;;;;;4878802;29;20029;-75
2023/10/22 02:51:13;;;;;;;5.70;1.55;;;17.70;99.90;;;;;;4868498;29;20393;-76
2023/10/22 02:53:39;;;;;;;8.57;1.75;;;17.70;99.90;;;;;;4878691;29;20081;-75
2023/10/22 02:56:07;;;;;;;7.95;1.52;;;17.80;99.90;;;;;;4860290;29;20037;-73
2023/10/22 02:58:33;;;;;;;7.95;1.55;;;17.70;99.90;;;;;;4878616;29;20116;-72
2023/10/22 03:01:06;;;;;;;5.88;2.08;;;17.70;99.90;;;;;;4861633;29;20460;-73
2023/10/22 03:03:38;;;;;;;6.90;2.13;;;17.70;99.90;;;;;;4861433;29;20053;-74
2023/10/22 03:06:07;;;;;;;4.53;1.63;;;17.70;99.90;;;;;;4878440;29;20064;-73
2023/10/22 03:08:34;;;;;;;9.18;1.90;;;17.80;99.90;;;;;;4859568;29;20488;-73
2023/10/22 03:11:00;;;;;;;9.70;1.85;;;17.70;99.90;;;;;;4878277;29;20048;-75
2023/10/22 03:13:27;;;;;;;5.10;1.45;;;17.70;99.90;;;;;;4876732;29;20029;-73
2023/10/22 03:15:54;;;;;;;5.30;1.75;;;17.70;99.90;;;;;;4861589;29;20051;-75
2023/10/22 03:18:20;;;;;;;8.43;1.42;;;17.60;99.90;;;;;;4877145;29;20031;-75
2023/10/22 03:20:46;;;;;;;7.53;1.88;;;17.60;99.90;;;;;;4878224;29;20112;-74
2023/10/22 03:23:12;;;;;;;6.80;1.95;;;17.60;99.90;;;;;;4861724;29;20017;-75
2023/10/22 03:25:39;;;;;;;4.38;1.88;;;17.50;99.90;;;;;;4859991;29;20041;-74
2023/10/22 03:28:06;;;;;;;9.40;1.80;;;17.50;99.90;;;;;;4878091;29;20029;-75
2023/10/22 03:30:37;;;;;;;8.23;1.73;;;17.50;99.90;;;;;;4877995;29;20037;-74
2023/10/22 03:33:03;;;;;;;7.05;1.73;;;17.50;99.90;;;;;;4861755;29;20037;-75
2023/10/22 03:35:29;;;;;;;5.93;1.88;;;17.50;99.90;;;;;;4885020;29;20560;-75
2023/10/22 03:37:55;;;;;;;6.60;1.95;;;17.50;99.90;;;;;;4878044;29;20089;-75
2023/10/22 03:40:21;;;;;;;5.00;2.00;;;17.40;99.90;;;;;;4878062;29;20036;-74
2023/10/22 03:42:48;;;;;;;11.32;2.10;;;17.40;99.90;;;;;;4877156;29;20017;-74
2023/10/22 03:45:14;;;;;;;5.43;2.00;;;17.30;99.90;;;;;;4855705;29;20557;-76
2023/10/22 03:47:39;;;;;;;8.65;2.42;;;17.30;99.90;;;;;;4859547;29;20121;-74
2023/10/22 03:50:06;;;;;;;9.63;2.20;;;17.30;99.90;;;;;;4854857;29;20041;-75
2023/10/22 03:52:32;;;;;;;8.50;2.10;;;17.30;99.90;;;;;;4877950;29;20112;-74
2023/10/22 03:54:58;;;;;;;7.93;1.63;;;17.30;99.90;;;;;;4878358;29;20541;-74
2023/10/22 03:57:24;;;;;;;8.02;1.95;;;17.30;99.90;;;;;;4878057;29;20036;-75
2023/10/22 03:59:49;;;;;;;7.43;1.55;;;17.30;99.90;;;;;;4878246;29;20037;-76
2023/10/22 04:02:15;;;;;;;7.53;2.13;;;17.30;99.90;;;;;;4877246;29;20037;-75
2023/10/22 04:04:42;;;;;;;5.30;2.00;;;17.20;99.90;;;;;;4878088;29;20068;-75
2023/10/22 04:07:08;;;;;;;9.02;2.25;;;17.30;99.90;;;;;;4877755;29;20037;-76
2023/10/22 04:09:34;;;;;;;7.50;1.83;;;17.30;99.90;;;;;;4877686;29;20385;-74
2023/10/22 04:11:59;;;;;;;4.85;1.65;;;17.30;99.90;;;;;;4878055;29;20082;-74
2023/10/22 04:14:25;;;;;;;8.13;2.10;;;17.10;99.90;;;;;;4878114;29;20434;-74
2023/10/22 04:16:51;;;;;;;7.22;2.17;;;17.20;99.90;;;;;;4877677;29;20033;-75
2023/10/22 04:19:17;;;;;;;6.93;1.83;;;17.10;99.90;;;;;;4877915;29;20029;-75
2023/10/22 04:21:43;;;;;;;10.05;2.05;;;17.20;99.90;;;;;;4877584;29;20077;-74
2023/10/22 04:24:09;;;;;;;5.05;1.88;;;17.20;99.90;;;;;;4881352;29;20434;-74
2023/10/22 04:26:35;;;;;;;4.30;2.00;;;17.30;99.90;;;;;;4881328;29;20115;-76
2023/10/22 04:29:01;;;;;;;12.45;2.17;;;17.30;99.90;;;;;;4881347;29;20263;-75
2023/10/22 04:31:27;;;;;;;6.63;2.15;;;17.10;99.90;;;;;;4881134;29;20037;-75
2023/10/22 04:33:56;;;;;;;9.60;2.60;;;;;;;;;;4881144;29;20088;-76
2023/10/22 04:36:22;;;;;;;8.20;2.15;;;17.20;99.90;;;;;;4881397;29;20036;-78
2023/10/22 04:38:51;;;;;;;10.68;2.42;;;17.30;99.90;;;;;;4881530;29;20029;-75
2023/10/22 04:41:16;;;;;;;6.18;2.28;;;17.20;99.90;;;;;;4880902;29;20788;-74
2023/10/22 04:43:42;;;;;;;5.88;2.38;;;17.20;99.90;;;;;;4881282;29;20061;-74
2023/10/22 04:46:08;;;;;;;7.65;2.08;;;17.30;99.90;;;;;;4881013;29;20045;-75
2023/10/22 04:48:34;;;;;;;7.75;2.38;;;17.10;99.90;;;;;;4881089;29;20029;-76
2023/10/22 04:51:05;;;;;;;6.05;1.95;;;17.20;99.90;;;;;;4880804;29;20101;-75
2023/10/22 04:53:34;;;;;;;7.00;2.45;;;17.20;99.90;;;;;;4880766;29;20065;-75
2023/10/22 04:56:01;;;;;;;9.50;2.05;;;17.30;99.90;;;;;;4881843;29;20036;-76
2023/10/22 04:58:28;;;;;;;14.00;1.92;;;17.00;99.90;;;;;;4891172;29;20109;-75
2023/10/22 05:00:55;;;;;;;8.07;1.73;;;17.00;99.90;;;;;;4882616;29;20085;-75
2023/10/22 05:03:21;;;;;;;6.82;1.92;;;16.90;99.90;;;;;;4883924;29;20056;-77
2023/10/22 05:05:47;;;;;;;6.82;2.08;;;16.90;99.90;;;;;;4880518;29;20429;-75
2023/10/22 05:08:13;;;;;;;5.82;2.13;;;16.90;99.90;;;;;;4880601;29;20170;-75
2023/10/22 05:10:39;;;;;;;7.10;2.53;;;16.80;99.90;;;;;;4880549;29;20086;-74
2023/10/22 05:13:08;;;;;;;6.15;2.10;;;16.80;99.90;;;;;;4880263;29;20029;-75
2023/10/22 05:15:34;;;;;;;10.50;2.42;;;16.80;99.90;;;;;;4890285;29;20033;-74
2023/10/22 05:18:00;;;;;;;8.38;2.63;;;16.80;99.90;;;;;;4880345;29;20069;-76
2023/10/22 05:20:29;;;;;;;15.18;2.47;;;16.80;99.90;;;;;;4880213;29;20040;-75
2023/10/22 05:22:55;;;;;;;7.93;2.85;;;16.90;99.90;;;;;;4880401;29;20033;-74
2023/10/22 05:25:21;;;;;;;7.00;2.10;;;17.10;99.90;;;;;;4880184;29;20041;-76
2023/10/22 05:27:47;;;;;;;8.23;2.47;;;17.50;99.90;;;;;;4880509;29;20033;-75
2023/10/22 05:30:14;;;;;;;6.20;2.35;;;17.90;99.90;;;;;;4879914;29;20172;-75
2023/10/22 05:32:39;;;;;;;4.63;2.20;;;18.00;99.90;;;;;;4879560;29;20037;-74
2023/10/22 05:35:06;;;;;;;12.00;3.25;;;18.30;99.90;;;;;;4879739;29;20048;-74
2023/10/22 05:37:33;;;;;;;7.53;2.25;;;18.70;99.90;;;;;;4880365;29;20036;-74
2023/10/22 05:39:59;;;;;;;6.50;2.10;;;18.80;99.90;;;;;;4880110;29;20084;-76
2023/10/22 05:42:25;;;;;;;9.00;2.47;;;18.70;99.50;;;;;;4879509;29;20052;-74
2023/10/22 05:44:51;;;;;;;9.95;3.25;;;18.70;99.30;;;;;;4880161;29;20033;-75
2023/10/22 05:47:17;;;;;;;9.27;2.25;;;18.60;98.70;;;;;;4879684;29;20051;-76
2023/10/22 05:49:44;;;;;;;13.18;3.42;;;18.40;98.40;;;;;;4880039;29;20037;-74
2023/10/22 05:52:10;;;;;;;6.95;2.95;;;18.40;99.80;;;;;;4879591;29;20061;-75
2023/10/22 05:54:36;;;;;;;8.13;2.60;;;18.10;99.90;;;;;;4880047;29;20041;-75
2023/10/22 05:57:02;;;;;;;9.27;2.15;;;18.00;99.90;;;;;;4879283;29;20040;-74
2023/10/22 05:59:28;;;;;;;9.10;2.40;;;18.10;99.90;;;;;;4879535;29;20469;-74
2023/10/22 06:01:54;;;;;;;8.82;2.10;;;18.20;99.90;;;;;;4878944;29;20045;-74
2023/10/22 06:04:20;;;;;;;7.50;2.20;;;18.30;99.90;;;;;;4879582;29;20044;-74
2023/10/22 06:06:46;;;;;;;7.30;1.95;;;18.50;99.90;;;;;;4878484;29;20025;-74
2023/10/22 06:09:12;;;;;;;11.65;2.95;;;18.70;99.90;;;;;;4878547;29;20081;-74
2023/10/22 06:11:39;;;;;;;10.82;2.40;;;18.90;99.90;;;;;;4878791;29;20370;-74
2023/10/22 06:14:06;;;;;;;7.93;2.05;;;19.10;99.90;;;;;;4879448;29;20025;-74
2023/10/22 06:16:32;;;;;;;11.10;3.10;;;19.40;99.90;;;;;;4879122;29;20051;-74
2023/10/22 06:18:58;;;;;;;9.13;3.03;;;19.60;99.90;;;;;;4878397;29;20024;-75
2023/10/22 06:21:24;;;;;;;10.45;2.88;;;19.70;99.90;;;;;;4869877;29;20398;-76
2023/10/22 06:23:52;;;;;;;8.60;2.47;;;19.70;99.10;;;;;;4878008;29;20128;-74
2023/10/22 06:26:18;;;;;;;6.85;2.05;;;19.60;98.60;;;;;;4878974;29;20382;-74
2023/10/22 06:28:44;;;;;;;12.90;3.05;;;19.60;98.60;;;;;;4876874;29;20033;-75
2023/10/22 06:31:12;;;;;;;12.93;2.58;;;19.50;98.60;;;;;;4878356;29;20048;-74
2023/10/22 06:33:39;;;;;;;12.15;3.10;;;19.40;98.40;;;;;;4877258;29;20028;-75
2023/10/22 06:36:16;;;;;;;9.85;2.33;;;19.30;98.20;;;;;;4870682;29;20175;-76
2023/10/22 06:38:43;;;;;;;11.13;2.65;;;19.30;98.30;;;;;;4878416;29;20043;-75
2023/10/22 06:41:21;;;;;;;11.38;2.38;;;19.00;98.80;;;;;;4875121;29;20370;-75
2023/10/22 06:43:47;;;;;;;10.57;2.47;;;18.70;99.90;;;;;;4868749;29;20025;-75
2023/10/22 06:46:14;;;;;;;9.48;3.13;;;18.60;99.90;;;;;;4878203;29;20051;-75
2023/10/22 06:48:41;;;;;;;7.72;2.92;;;18.50;99.90;;;;;;4874115;29;20025;-75
2023/10/22 06:51:11;;;;;;;8.38;2.97;;;18.60;99.90;;;;;;4867758;29;20069;-74
2023/10/22 06:53:38;;;;;;;9.10;2.70;;;18.60;99.90;;;;;;4877948;29;20103;-74
2023/10/22 06:56:05;;;;;;;10.88;2.13;;;18.90;99.90;;;;;;4878451;29;21606;-75
2023/10/22 06:58:32;;;;;;;10.38;2.95;;;19.20;99.90;;;;;;4877017;29;20033;-75
2023/10/22 07:01:11;;;;;;;9.30;2.67;;;19.30;99.90;;;;;;4875955;29;20037;-74
2023/10/22 07:03:45;;;;;;;11.43;3.20;;;19.60;99.90;;;;;;4863390;29;20088;-77
2023/10/22 07:06:11;;;;;;;9.35;2.92;;;19.70;99.90;;;;;;4876129;29;20025;-74
2023/10/22 07:08:37;;;;;;;8.45;2.60;;;19.80;99.90;;;;;;4878131;29;20039;-75
2023/10/22 07:11:03;;;;;;;12.48;3.13;;;19.80;99.90;;;;;;4868622;29;20044;-74
2023/10/22 07:13:29;;;;;;;11.55;3.50;;;20.10;99.90;;;;;;4877888;29;20033;-75
2023/10/22 07:15:55;;;;;;;9.43;3.25;;;20.30;99.90;;;;;;4862899;29;20453;-75
2023/10/22 07:18:22;;;;;;;14.38;3.65;;;20.50;99.80;;;;;;4877388;29;20025;-75
2023/10/22 07:20:48;;;;;;;9.20;3.08;;;20.70;99.20;;;;;;4865851;29;20041;-74
2023/10/22 07:23:14;;;;;;;13.88;4.43;;;20.90;98.20;;;;;;4874837;29;20040;-74
2023/10/22 07:25:40;;;;;;;11.75;3.80;;;21.00;98.10;;;;;;4866137;29;20059;-75
2023/10/22 07:28:06;;;;;;;10.32;3.47;;;20.90;97.80;;;;;;4877701;29;20033;-75
2023/10/22 07:30:32;;;;;;;13.23;3.92;;;20.90;97.80;;;;;;4870269;29;20048;-75
2023/10/22 07:32:58;;;;;;;10.60;2.80;;;21.10;97.40;;;;;;4868052;29;20489;-75
2023/10/22 07:35:24;;;;;;;8.88;2.47;;;21.00;97.50;;;;;;4877994;29;20037;-75
2023/10/22 07:37:50;;;;;;;5.80;2.53;;;21.10;98.40;;;;;;4873058;29;20037;-74
2023/10/22 07:40:19;;;;;;;15.32;2.90;;;21.00;98.60;;;;;;4877542;29;20029;-74
2023/10/22 07:42:48;;;;;;;14.48;3.42;;;21.00;98.20;;;;;;4877860;29;20071;-74
2023/10/22 07:45:14;;;;;;;11.32;4.05;;;21.10;98.10;;;;;;4877964;29;20056;-76
2023/10/22 07:47:40;;;;;;;15.13;3.72;;;21.40;99.30;;;;;;4877937;29;20032;-75
2023/10/22 07:50:07;;;;;;;14.68;4.03;;;21.60;98.70;;;;;;4886366;29;20040;-75
2023/10/22 07:52:34;;;;;;;11.77;3.53;;;21.70;99.10;;;;;;4878990;29;20500;-74
2023/10/22 07:55:01;;;;;;;9.48;3.10;;;21.90;98.90;;;;;;4877568;29;20107;-75
2023/10/22 07:57:27;;;;;;;7.13;2.85;;;22.00;98.00;;;;;;4877166;29;20029;-77
2023/10/22 07:59:55;;;;;;;11.13;2.92;;;22.10;97.20;;;;;;4880135;29;20053;-75
2023/10/22 08:02:21;;;;;;;12.98;3.50;;;21.90;96.80;;;;;;4876496;29;20049;-75
2023/10/22 08:04:47;;;;;;;17.20;4.97;;;21.80;97.00;;;;;;4866231;29;20041;-74
2023/10/22 08:07:13;;;;;;;15.10;4.07;;;21.70;97.10;;;;;;4879152;29;20029;-75
2023/10/22 08:09:39;;;;;;;33.95;4.50;;;21.70;97.20;;;;;;4881145;29;20041;-75
2023/10/22 08:12:05;;;;;;;14.20;4.00;;;21.70;97.30;;;;;;4880938;29;20366;-74
2023/10/22 08:14:30;;;;;;;16.33;5.10;;;21.90;97.30;;;;;;4881371;29;20025;-75
2023/10/22 08:16:58;;;;;;;12.88;4.10;;;22.00;97.00;;;;;;4880657;29;20048;-72
2023/10/22 08:19:24;;;;;;;9.73;4.05;;;22.20;96.70;;;;;;4880869;29;20185;-75
2023/10/22 08:21:50;;;;;;;13.27;4.38;;;22.50;96.60;;;;;;4881345;29;20166;-73
2023/10/22 08:24:15;;;;;;;13.32;4.03;;;22.70;96.90;;;;;;4881292;29;20047;-72
2023/10/22 08:26:41;;;;;;;12.75;4.03;;;22.90;96.20;;;;;;4880884;29;20044;-72
2023/10/22 08:29:08;;;;;;;12.40;3.67;;;23.00;94.90;;;;;;4880088;29;20093;-74
2023/10/22 08:31:34;;;;;;;13.98;3.55;;;23.10;95.20;;;;;;4879715;29;20128;-73
2023/10/22 08:34:01;;;;;;;13.90;3.72;;;22.90;93.80;;;;;;4882859;29;20143;-76
2023/10/22 08:36:27;;;;;;;14.07;4.50;;;22.70;93.60;;;;;;4880760;29;20033;-75
2023/10/22 08:38:53;;;;;;;19.25;4.43;;;22.90;94.20;;;;;;4880953;29;20096;-74
2023/10/22 08:41:25;;;;;;;17.83;6.13;;;22.80;93.40;;;;;;4880754;29;20029;-74
2023/10/22 08:43:51;;;;;;;12.98;3.72;;;22.60;92.60;;;;;;4880383;29;20039;-76
2023/10/22 08:46:17;;;;;;;13.90;3.67;;;22.30;93.90;;;;;;4881099;29;20041;-74
2023/10/22 08:48:44;;;;;;;6.55;2.28;;;22.30;94.30;;;;;;4880569;29;20041;-75
2023/10/22 08:51:10;;;;;;;10.13;2.63;;;22.10;94.10;;;;;;4881204;29;20076;-76
2023/10/22 08:53:37;;;;;;;11.38;3.15;;;22.20;94.60;;;;;;4880293;29;20077;-76
2023/10/22 08:56:03;;;;;;;11.48;3.30;;;22.50;94.40;;;;;;4890251;29;20033;-74
2023/10/22 08:58:30;;;;;;;9.52;3.67;;;22.80;94.20;;;;;;4880078;29;20516;-74
2023/10/22 09:00:56;;;;;;;13.00;3.53;;;23.00;94.10;;;;;;4879834;29;20093;-74
2023/10/22 09:03:25;;;;;;;9.98;3.42;;;23.50;99.90;;;;;;4879040;29;20501;-75
2023/10/22 09:05:53;;;;;;;8.23;3.25;;;23.70;92.50;;;;;;4879073;29;20424;-74
2023/10/22 09:08:19;;;;;;;9.57;2.90;;;23.90;91.40;;;;;;4880121;29;20040;-74
2023/10/22 09:10:45;;;;;;;8.23;2.55;;;24.00;91.20;;;;;;4863550;29;20064;-76
2023/10/22 09:13:12;;;;;;;8.25;2.90;;;;;;;;;;4880440;29;20177;-75
2023/10/22 09:15:43;;;;;;;7.90;2.85;;;24.30;96.90;;;;;;4880470;29;20048;-74
2023/10/22 09:18:09;;;;;;;10.75;2.58;;;24.30;89.10;;;;;;4888288;29;20033;-75
2023/10/22 09:20:35;;;;;;;13.07;2.78;;;24.50;91.80;;;;;;4880960;29;20156;-75
2023/10/22 09:23:20;;;;;;;5.93;2.80;;;24.50;90.00;;;;;;4882172;29;20057;-74
2023/10/22 09:25:51;;;;;;;12.35;3.50;;;24.50;90.40;;;;;;4879870;29;20032;-74
2023/10/22 09:28:24;;;;;;;7.55;2.45;;;24.60;90.50;;;;;;4878358;29;20075;-74
2023/10/22 09:31:00;;;;;;;8.77;2.83;;;;;;;;;;4878548;29;20393;-74
2023/10/22 09:33:33;;;;;;;11.25;3.20;;;25.00;90.40;;;;;;4878033;29;20449;-74
2023/10/22 09:36:05;;;;;;;8.85;2.88;;;24.90;90.80;;;;;;4878846;29;20404;-75
2023/10/22 09:38:42;;;;;;;7.57;2.75;;;24.80;90.60;;;;;;4879869;29;20033;-75
2023/10/22 09:41:11;;;;;;;8.00;3.03;;;24.80;89.20;;;;;;4880222;29;20449;-76
2023/10/22 09:43:37;;;;;;;9.70;3.38;;;24.90;91.20;;;;;;4879791;29;20028;-74
2023/10/22 09:46:06;;;;;;;8.50;3.33;;;24.60;89.50;;;;;;4879987;29;20044;-75
2023/10/22 09:48:34;;;;;;;7.55;2.83;;;24.80;90.30;;;;;;4879766;29;20063;-75
2023/10/22 09:51:04;;;;;;;7.30;2.40;;;24.90;84.50;;;;;;4867320;29;20041;-74
2023/10/22 09:53:35;;;;;;;7.95;3.15;;;24.90;87.80;;;;;;4879617;29;20036;-75
2023/10/22 09:56:06;;;;;;;6.63;2.08;;;24.90;84.50;;;;;;4879709;29;20033;-74
2023/10/22 09:58:39;;;;;;;9.75;2.88;;;25.20;97.50;;;;;;4871475;29;20071;-76
2023/10/22 10:01:07;;;;;;;11.60;2.40;;;25.10;82.30;;;;;;4889353;29;20044;-75
2023/10/22 10:03:33;;;;;;;11.98;3.38;;;25.30;85.20;;;;;;4870345;29;20033;-74
2023/10/22 10:05:59;;;;;;;9.65;2.60;;;25.50;83.90;;;;;;4879452;29;20025;-75
2023/10/22 10:08:25;;;;;;;6.50;1.70;;;25.60;82.50;;;;;;4879451;29;20500;-75
2023/10/22 10:10:51;;;;;;;7.47;2.22;;;25.50;81.50;;;;;;4879373;29;20386;-75
2023/10/22 10:13:18;;;;;;;6.85;2.47;;;25.50;82.10;;;;;;4879256;29;20033;-76
2023/10/22 10:15:58;;;;;;;13.98;2.42;;;25.40;82.00;;;;;;4879598;29;20123;-75
2023/10/22 10:19:02;;;;;;;5.72;2.28;;;25.30;81.40;;;;;;4879154;29;20073;-75
2023/10/22 10:21:34;;;;;;;10.07;2.38;;;25.20;81.40;;;;;;4878356;29;20025;-76
2023/10/22 10:24:16;;;;;;;5.88;1.77;;;25.20;81.00;;;;;;4879388;29;20108;-75
2023/10/22 10:26:44;;;;;;;9.02;2.47;;;25.20;81.80;;;;;;4879456;29;20029;-75
2023/10/22 10:29:18;;;;;;;5.88;2.10;;;25.20;82.60;;;;;;4879295;29;20033;-75
2023/10/22 10:31:48;;;;;;;12.40;2.42;;;25.20;80.70;;;;;;4879080;29;20139;-75
2023/10/22 10:34:21;;;;;;;11.00;2.42;;;25.10;82.90;;;;;;4878612;29;20025;-75
2023/10/22 10:36:49;;;;;;;9.95;1.65;;;24.80;82.30;;;;;;4879253;29;20033;-76
2023/10/22 10:39:51;;;;;;;7.90;2.45;;;24.80;82.30;;;;;;4878898;29;20029;-75
2023/10/22 10:42:28;;;;;;;8.55;2.25;;;24.80;82.50;;;;;;4878850;29;20378;-75
2023/10/22 10:44:54;;;;;;;8.85;3.15;;;24.80;82.70;;;;;;4878959;29;20021;-75
2023/10/22 10:47:20;;;;;;;7.75;2.38;;;24.70;82.50;;;;;;4878967;29;20477;-75
2023/10/22 10:50:07;;;;;;;8.07;2.42;;;24.60;82.40;;;;;;4878658;29;20040;-75
2023/10/22 10:52:41;;;;;;;10.18;2.42;;;24.60;81.10;;;;;;4785160;30;20047;-75
2023/10/22 10:55:10;;;;;;;8.82;2.72;;;24.40;81.30;;;;;;4785418;29;20486;-75
2023/10/22 10:57:37;;;;;;;8.40;3.10;;;24.50;82.90;;;;;;4785206;30;20126;-74
2023/10/22 11:00:10;;;;;;;8.45;2.58;;;24.50;82.30;;;;;;4785254;29;20043;-75
2023/10/22 11:02:43;;;;;;;7.82;2.83;;;24.50;83.10;;;;;;4785024;29;20088;-75
2023/10/22 11:05:13;;;;;;;8.13;2.55;;;24.60;82.80;;;;;;4785157;29;20039;-75
2023/10/22 11:07:39;;;;;;;10.50;2.97;;;24.60;82.60;;;;;;4785448;30;20042;-74
2023/10/22 11:10:16;;;;;;;8.32;2.40;;;24.60;81.50;;;;;;4784713;30;20085;-75
2023/10/22 11:12:44;;;;;;;8.93;2.50;;;24.80;82.50;;;;;;4785240;29;20067;-75
2023/10/22 11:15:12;;;;;;;9.13;2.53;;;24.80;83.10;;;;;;4784844;29;20106;-75
2023/10/22 11:17:40;;;;;;;12.55;3.25;;;24.90;81.40;;;;;;4785249;30;20116;-74
2023/10/22 11:20:07;;;;;;;9.93;3.67;;;24.90;80.60;;;;;;4784637;29;20028;-74
2023/10/22 11:22:35;;;;;;;13.15;3.28;;;24.90;81.50;;;;;;4769850;30;20119;-75
2023/10/22 11:25:05;;;;;;;10.82;2.88;;;24.80;82.00;;;;;;4784797;29;20118;-76
2023/10/22 11:27:32;;;;;;;7.85;3.22;;;24.80;81.70;;;;;;4784852;30;20043;-75
2023/10/22 11:30:00;;;;;;;7.30;2.55;;;24.60;81.20;;;;;;4845340;29;20052;-75
2023/10/22 11:32:26;;;;;;;9.88;3.50;;;24.60;81.60;;;;;;4877898;29;20035;-76
2023/10/22 11:34:53;;;;;;;11.95;3.80;;;24.60;81.70;;;;;;4878297;29;20474;-75
2023/10/22 11:37:28;;;;;;;8.38;2.53;;;24.60;81.40;;;;;;4877956;29;20043;-75
2023/10/22 11:39:54;;;;;;;11.80;3.72;;;24.50;82.40;;;;;;4877924;29;20029;-78
2023/10/22 11:42:20;;;;;;;13.57;4.85;;;24.30;82.90;;;;;;4877945;29;20077;-77
2023/10/22 11:44:46;;;;;;;12.93;5.38;;;24.10;83.70;;;;;;4877545;29;20067;-76
2023/10/22 11:47:26;;;;;;;12.50;5.50;;;23.90;85.40;;;;;;4878238;29;20041;-75
2023/10/22 11:49:55;;;;;;;16.67;5.85;;;23.80;88.00;;;;;;4863508;29;20044;-78
2023/10/22 11:52:40;;;;;;;14.57;5.50;;;23.60;90.90;;;;;;4878576;29;20033;-76
2023/10/22 11:55:09;;;;;;;11.98;4.32;;;23.30;91.00;;;;;;4871601;29;20382;-79
2023/10/22 11:57:38;;;;;;;10.73;3.58;;;23.10;91.40;;;;;;4877643;29;20025;-78
2023/10/22 12:00:06;;;;;;;11.90;3.65;;;23.00;91.70;;;;;;4877993;29;20116;-77
2023/10/22 12:02:32;;;;;;;13.57;4.78;;;22.90;91.60;;;;;;4877634;29;20061;-76
2023/10/22 12:04:58;;;;;;;13.70;3.97;;;22.90;91.80;;;;;;4877703;29;20486;-75
2023/10/22 12:07:23;;;;;;;10.60;3.85;;;22.90;91.50;;;;;;4877845;29;20081;-78
2023/10/22 12:09:50;;;;;;;9.85;3.35;;;22.90;93.00;;;;;;4877535;29;20440;-78
2023/10/22 12:12:15;;;;;;;11.68;2.65;;;22.70;93.50;;;;;;4878002;29;20414;-78
2023/10/22 12:14:42;;;;;;;7.60;2.75;;;22.70;93.50;;;;;;4877613;29;20068;-76
2023/10/22 12:17:08;;;;;;;13.15;4.22;;;22.80;99.90;;;;;;4877532;29;20025;-76
2023/10/22 12:19:34;;;;;;;14.48;4.25;;;22.80;99.90;;;;;;4877875;29;20529;-77
2023/10/22 12:22:00;;;;;;;14.65;3.55;;;22.80;99.90;;;;;;4877573;29;20048;-75
2023/10/22 12:24:26;;;;;;;12.25;3.38;;;22.60;94.50;;;;;;4877754;29;20025;-78
2023/10/22 12:26:52;;;;;;;8.15;2.90;;;22.70;94.40;;;;;;4877386;29;20125;-74
2023/10/22 12:29:18;;;;;;;11.95;3.15;;;22.70;95.20;;;;;;4881591;29;20084;-76
2023/10/22 12:31:44;;;;;;;10.27;2.75;;;22.70;95.00;;;;;;4876369;29;20033;-73
2023/10/22 12:34:10;;;;;;;10.90;2.67;;;22.60;95.80;;;;;;4876132;29;20037;-74
2023/10/22 12:36:35;;;;;;;8.05;2.30;;;22.60;94.80;;;;;;4874174;29;20033;-74
2023/10/22 12:39:02;;;;;;;7.45;2.05;;;22.50;95.00;;;;;;4877000;29;20025;-76
2023/10/22 12:41:28;;;;;;;11.35;3.03;;;22.60;95.40;;;;;;4866497;29;20394;-74
2023/10/22 12:43:54;;;;;;;9.40;3.13;;;22.60;95.30;;;;;;4878522;29;20029;-76
2023/10/22 12:46:20;;;;;;;5.93;2.08;;;22.40;95.40;;;;;;4884994;29;20032;-76